createdAt,value
2017-07-20T00:00:37.985Z,0
2017-07-20T00:01:38.561Z,0
2017-07-20T00:02:39.139Z,0
2017-07-20T00:03:39.717Z,0
2017-07-20T00:04:40.306Z,0
2017-07-20T00:05:40.883Z,0
2017-07-20T00:06:41.462Z,0
2017-07-20T00:07:42.040Z,0
2017-07-20T00:08:42.618Z,0
2017-07-20T00:09:43.196Z,0
2017-07-20T00:10:43.773Z,0
2017-07-20T00:11:44.350Z,0
2017-07-20T00:12:44.930Z,0
2017-07-20T00:13:45.506Z,0
2017-07-20T00:14:46.083Z,0
2017-07-20T00:15:46.671Z,0
2017-07-20T00:16:47.250Z,0
2017-07-20T00:17:47.828Z,0
2017-07-20T00:18:48.419Z,0
2017-07-20T00:19:48.994Z,0
2017-07-20T00:20:49.570Z,0
2017-07-20T00:21:50.145Z,0
2017-07-20T00:22:50.725Z,0
2017-07-20T00:23:51.301Z,0
2017-07-20T00:24:51.877Z,0
2017-07-20T00:25:52.453Z,0
2017-07-20T00:26:53.030Z,0
2017-07-20T00:27:53.606Z,0
2017-07-20T00:28:54.183Z,0
2017-07-20T00:29:54.761Z,0
2017-07-20T00:30:55.337Z,0
2017-07-20T00:31:55.915Z,0
2017-07-20T00:32:56.504Z,0
2017-07-20T00:33:57.081Z,0
2017-07-20T00:34:57.659Z,0
2017-07-20T00:35:58.235Z,0
2017-07-20T00:36:58.815Z,0
2017-07-20T00:37:59.392Z,0
2017-07-20T00:38:59.979Z,0
2017-07-20T00:40:00.556Z,0
2017-07-20T00:41:01.132Z,0
2017-07-20T00:42:01.707Z,0
2017-07-20T00:43:02.284Z,0
2017-07-20T00:44:02.862Z,0
2017-07-20T00:45:03.438Z,0
2017-07-20T00:46:04.013Z,0
2017-07-20T00:47:04.589Z,0
2017-07-20T00:48:05.165Z,0
2017-07-20T00:49:05.743Z,0
2017-07-20T00:50:06.318Z,0
2017-07-20T00:51:06.898Z,0
2017-07-20T00:52:07.475Z,0
2017-07-20T00:53:08.050Z,0
2017-07-20T00:54:08.627Z,0
2017-07-20T00:55:09.204Z,0
2017-07-20T00:56:09.780Z,0
2017-07-20T00:57:10.369Z,0
2017-07-20T00:58:10.947Z,0
2017-07-20T00:59:11.525Z,0
2017-07-20T01:00:12.105Z,0
2017-07-20T01:01:12.682Z,0
2017-07-20T01:02:13.263Z,0
2017-07-20T01:03:13.839Z,0
2017-07-20T01:04:14.414Z,0
2017-07-20T01:05:14.991Z,0
2017-07-20T01:06:15.568Z,0
2017-07-20T01:07:16.149Z,0
2017-07-20T01:08:16.734Z,0
2017-07-20T01:09:17.313Z,0
2017-07-20T01:10:17.890Z,0
2017-07-20T01:11:18.470Z,0
2017-07-20T01:12:19.047Z,0
2017-07-20T01:13:19.626Z,0
2017-07-20T01:14:20.203Z,0
2017-07-20T01:15:20.781Z,0
2017-07-20T01:16:21.357Z,0
2017-07-20T01:17:21.935Z,0
2017-07-20T01:18:22.513Z,0
2017-07-20T01:19:23.093Z,0
2017-07-20T01:20:23.670Z,0
2017-07-20T01:21:24.260Z,0
2017-07-20T01:22:24.838Z,0
2017-07-20T01:23:25.415Z,0
2017-07-20T01:24:25.993Z,0
2017-07-20T01:25:26.570Z,0
2017-07-20T01:26:27.151Z,0
2017-07-20T01:27:27.733Z,0
2017-07-20T01:28:28.305Z,0
2017-07-20T01:29:28.882Z,0
2017-07-20T01:30:29.459Z,0
2017-07-20T01:31:30.035Z,0
2017-07-20T01:32:30.613Z,0
2017-07-20T01:33:31.189Z,0
2017-07-20T01:34:31.769Z,0
2017-07-20T01:35:32.344Z,0
2017-07-20T01:36:32.922Z,0
2017-07-20T01:37:33.499Z,0
2017-07-20T01:38:34.076Z,0
2017-07-20T01:39:34.653Z,0
2017-07-20T01:40:35.231Z,0
2017-07-20T01:41:35.807Z,0
2017-07-20T01:42:36.386Z,0
2017-07-20T01:43:36.962Z,0
2017-07-20T01:44:37.539Z,0
2017-07-20T01:45:38.116Z,0
2017-07-20T01:46:38.695Z,0
2017-07-20T01:47:39.273Z,0
2017-07-20T01:48:39.847Z,0
2017-07-20T01:49:40.425Z,0
2017-07-20T01:50:41.002Z,0
2017-07-20T01:51:41.578Z,0
2017-07-20T01:52:42.155Z,0
2017-07-20T01:53:42.733Z,0
2017-07-20T01:54:43.311Z,0
2017-07-20T01:55:43.887Z,0
2017-07-20T01:56:44.464Z,0
2017-07-20T01:57:45.040Z,0
2017-07-20T01:58:45.618Z,0
2017-07-20T01:59:46.196Z,0
2017-07-20T02:00:46.773Z,0
2017-07-20T02:01:47.351Z,0
2017-07-20T02:02:47.939Z,0
2017-07-20T02:03:48.520Z,0
2017-07-20T02:04:49.094Z,0
2017-07-20T02:05:49.673Z,0
2017-07-20T02:06:50.250Z,0
2017-07-20T02:07:50.830Z,0
2017-07-20T02:08:51.424Z,0
2017-07-20T02:09:52.008Z,0
2017-07-20T02:10:52.585Z,0
2017-07-20T02:11:53.162Z,0
2017-07-20T02:12:53.739Z,0
2017-07-20T02:13:54.326Z,0
2017-07-20T02:14:54.916Z,0
2017-07-20T02:15:55.505Z,0
2017-07-20T02:16:56.093Z,0
2017-07-20T02:17:56.661Z,0
2017-07-20T02:18:57.241Z,0
2017-07-20T02:19:57.818Z,0
2017-07-20T02:20:58.396Z,0
2017-07-20T02:21:58.973Z,0
2017-07-20T02:22:59.551Z,0
2017-07-20T02:24:00.128Z,0
2017-07-20T02:25:00.707Z,0
2017-07-20T02:26:01.284Z,0
2017-07-20T02:27:01.861Z,0
2017-07-20T02:28:02.437Z,0
2017-07-20T02:29:03.031Z,0
2017-07-20T02:30:03.590Z,0
2017-07-20T02:31:04.167Z,0
2017-07-20T02:32:04.743Z,0
2017-07-20T02:33:05.321Z,0
2017-07-20T02:34:05.897Z,0
2017-07-20T02:35:06.475Z,0
2017-07-20T02:36:07.054Z,0
2017-07-20T02:37:07.629Z,0
2017-07-20T02:38:08.204Z,0
2017-07-20T02:39:08.782Z,0
2017-07-20T02:40:09.358Z,0
2017-07-20T02:41:09.936Z,0
2017-07-20T02:42:10.513Z,0
2017-07-20T02:43:11.091Z,0
2017-07-20T02:44:11.668Z,0
2017-07-20T02:45:12.245Z,0
2017-07-20T02:46:12.821Z,0
2017-07-20T02:47:13.400Z,0
2017-07-20T02:48:13.975Z,0
2017-07-20T02:49:14.553Z,0
2017-07-20T02:50:15.131Z,0
2017-07-20T02:51:15.708Z,0
2017-07-20T02:52:16.285Z,0
2017-07-20T02:53:16.863Z,0
2017-07-20T02:54:17.442Z,0
2017-07-20T02:55:18.029Z,0
2017-07-20T02:56:18.607Z,0
2017-07-20T02:57:19.186Z,0
2017-07-20T02:58:19.760Z,0
2017-07-20T02:59:20.337Z,0
2017-07-20T03:00:20.916Z,0
2017-07-20T03:01:21.493Z,0
2017-07-20T03:02:22.079Z,0
2017-07-20T03:03:22.655Z,0
2017-07-20T03:04:23.230Z,0
2017-07-20T03:05:23.806Z,0
2017-07-20T03:06:24.381Z,0
2017-07-20T03:07:24.980Z,0
2017-07-20T03:08:25.547Z,0
2017-07-20T03:09:26.126Z,0
2017-07-20T03:10:26.703Z,0
2017-07-20T03:11:27.280Z,0
2017-07-20T03:12:27.863Z,0
2017-07-20T03:13:28.436Z,0
2017-07-20T03:14:29.013Z,0
2017-07-20T03:15:29.600Z,0
2017-07-20T03:16:30.178Z,0
2017-07-20T03:17:30.753Z,0
2017-07-20T03:18:31.329Z,0
2017-07-20T03:19:31.906Z,0
2017-07-20T03:20:32.481Z,0
2017-07-20T03:21:33.057Z,0
2017-07-20T03:22:33.634Z,0
2017-07-20T03:23:34.211Z,4
2017-07-20T03:24:34.788Z,4
2017-07-20T03:25:35.365Z,4
2017-07-20T03:26:35.941Z,4
2017-07-20T03:27:36.518Z,4
2017-07-20T03:28:37.106Z,4
2017-07-20T03:29:37.685Z,4
2017-07-20T03:30:38.263Z,4
2017-07-20T03:31:38.850Z,4
2017-07-20T03:32:39.426Z,4
2017-07-20T03:33:40.002Z,0
2017-07-20T03:34:40.579Z,0
2017-07-20T03:35:41.155Z,0
2017-07-20T03:36:41.732Z,0
2017-07-20T03:37:42.309Z,0
2017-07-20T03:38:42.905Z,0
2017-07-20T03:39:43.477Z,0
2017-07-20T03:40:44.053Z,4
2017-07-20T03:41:44.641Z,4
2017-07-20T03:42:45.218Z,4
2017-07-20T03:43:45.794Z,4
2017-07-20T03:44:46.370Z,4
2017-07-20T03:45:46.958Z,4
2017-07-20T03:46:47.536Z,4
2017-07-20T03:47:48.126Z,8
2017-07-20T03:48:48.713Z,8
2017-07-20T03:49:49.300Z,8
2017-07-20T03:50:49.878Z,8
2017-07-20T03:51:50.455Z,12
2017-07-20T03:52:51.030Z,8
2017-07-20T03:53:51.606Z,8
2017-07-20T03:54:52.184Z,12
2017-07-20T03:55:52.761Z,12
2017-07-20T03:56:53.339Z,12
2017-07-20T03:57:53.917Z,16
2017-07-20T03:58:54.497Z,12
2017-07-20T03:59:55.074Z,16
2017-07-20T04:00:55.655Z,16
2017-07-20T04:01:56.232Z,16
2017-07-20T04:02:56.812Z,16
2017-07-20T04:03:57.399Z,16
2017-07-20T04:04:57.979Z,20
2017-07-20T04:05:58.579Z,20
2017-07-20T04:06:59.144Z,20
2017-07-20T04:07:59.722Z,20
2017-07-20T04:09:00.312Z,20
2017-07-20T04:10:00.889Z,20
2017-07-20T04:11:01.469Z,20
2017-07-20T04:12:02.047Z,28
2017-07-20T04:13:02.634Z,28
2017-07-20T04:14:03.216Z,24
2017-07-20T04:15:03.814Z,24
2017-07-20T04:16:04.388Z,20
2017-07-20T04:17:04.970Z,20
2017-07-20T04:18:05.549Z,20
2017-07-20T04:19:06.126Z,24
2017-07-20T04:20:06.703Z,24
2017-07-20T04:21:07.282Z,24
2017-07-20T04:22:07.861Z,16
2017-07-20T04:23:08.435Z,16
2017-07-20T04:24:09.016Z,12
2017-07-20T04:25:09.590Z,16
2017-07-20T04:26:10.167Z,12
2017-07-20T04:27:10.744Z,12
2017-07-20T04:28:11.327Z,12
2017-07-20T04:29:11.901Z,12
2017-07-20T04:30:12.480Z,12
2017-07-20T04:31:13.059Z,8
2017-07-20T04:32:13.638Z,12
2017-07-20T04:33:14.214Z,8
2017-07-20T04:34:14.793Z,8
2017-07-20T04:35:15.368Z,8
2017-07-20T04:36:15.946Z,8
2017-07-20T04:37:16.522Z,4
2017-07-20T04:38:17.103Z,4
2017-07-20T04:39:17.688Z,4
2017-07-20T04:40:18.276Z,4
2017-07-20T04:41:18.852Z,8
2017-07-20T04:42:19.428Z,8
2017-07-20T04:43:20.004Z,8
2017-07-20T04:44:20.580Z,8
2017-07-20T04:45:21.157Z,4
2017-07-20T04:46:21.733Z,8
2017-07-20T04:47:22.309Z,8
2017-07-20T04:48:22.886Z,8
2017-07-20T04:49:23.462Z,8
2017-07-20T04:50:24.037Z,8
2017-07-20T04:51:24.615Z,4
2017-07-20T04:52:25.190Z,8
2017-07-20T04:53:25.768Z,8
2017-07-20T04:54:26.355Z,8
2017-07-20T04:55:26.931Z,8
2017-07-20T04:56:27.511Z,4
2017-07-20T04:57:28.088Z,8
2017-07-20T04:58:28.666Z,8
2017-07-20T04:59:29.242Z,8
2017-07-20T05:00:29.820Z,8
2017-07-20T05:01:30.396Z,4
2017-07-20T05:02:30.972Z,4
2017-07-20T05:03:31.548Z,4
2017-07-20T05:04:32.127Z,4
2017-07-20T05:05:32.716Z,4
2017-07-20T05:06:33.293Z,8
2017-07-20T05:07:33.872Z,8
2017-07-20T05:08:34.448Z,4
2017-07-20T05:09:35.026Z,8
2017-07-20T05:10:35.601Z,4
2017-07-20T05:11:36.180Z,8
2017-07-20T05:12:36.756Z,8
2017-07-20T05:13:37.343Z,8
2017-07-20T05:14:37.921Z,8
2017-07-20T05:15:38.498Z,4
2017-07-20T05:16:39.096Z,4
2017-07-20T05:17:39.654Z,0
2017-07-20T05:18:40.242Z,4
2017-07-20T05:19:40.816Z,4
2017-07-20T05:20:41.390Z,8
2017-07-20T05:21:41.965Z,8
2017-07-20T05:22:42.540Z,8
2017-07-20T05:23:43.116Z,8
2017-07-20T05:24:43.693Z,12
2017-07-20T05:25:44.270Z,8
2017-07-20T05:26:44.848Z,12
2017-07-20T05:27:45.423Z,12
2017-07-20T05:28:46.000Z,12
2017-07-20T05:29:46.582Z,12
2017-07-20T05:30:47.169Z,12
2017-07-20T05:31:47.746Z,16
2017-07-20T05:32:48.324Z,16
2017-07-20T05:33:48.902Z,20
2017-07-20T05:34:49.477Z,20
2017-07-20T05:35:50.056Z,24
2017-07-20T05:36:50.634Z,24
2017-07-20T05:37:51.214Z,24
2017-07-20T05:38:51.787Z,28
2017-07-20T05:39:52.364Z,36
2017-07-20T05:40:52.940Z,32
2017-07-20T05:41:53.530Z,36
2017-07-20T05:42:54.109Z,40
2017-07-20T05:43:54.685Z,40
2017-07-20T05:44:55.263Z,44
2017-07-20T05:45:55.840Z,44
2017-07-20T05:46:56.429Z,44
2017-07-20T05:47:57.008Z,44
2017-07-20T05:48:57.587Z,44
2017-07-20T05:49:58.174Z,48
2017-07-20T05:50:58.753Z,44
2017-07-20T05:51:59.330Z,44
2017-07-20T05:52:59.910Z,48
2017-07-20T05:54:00.509Z,44
2017-07-20T05:55:01.066Z,44
2017-07-20T05:56:01.643Z,40
2017-07-20T05:57:02.232Z,40
2017-07-20T05:58:02.811Z,36
2017-07-20T05:59:03.392Z,36
2017-07-20T06:00:03.964Z,36
2017-07-20T06:01:04.542Z,36
2017-07-20T06:02:05.120Z,36
2017-07-20T06:03:05.698Z,40
2017-07-20T06:04:06.273Z,36
2017-07-20T06:05:06.884Z,44
2017-07-20T06:06:07.439Z,44
2017-07-20T06:07:08.019Z,44
2017-07-20T06:08:08.596Z,52
2017-07-20T06:09:09.175Z,52
2017-07-20T06:10:09.753Z,52
2017-07-20T06:11:10.340Z,56
2017-07-20T06:12:10.921Z,56
2017-07-20T06:13:11.497Z,60
2017-07-20T06:14:12.080Z,60
2017-07-20T06:15:12.653Z,60
2017-07-20T06:16:13.231Z,60
2017-07-20T06:17:13.808Z,56
2017-07-20T06:18:14.386Z,56
2017-07-20T06:19:14.964Z,56
2017-07-20T06:20:15.541Z,52
2017-07-20T06:21:16.119Z,48
2017-07-20T06:22:16.696Z,52
2017-07-20T06:23:17.274Z,48
2017-07-20T06:24:17.852Z,52
2017-07-20T06:25:18.431Z,52
2017-07-20T06:26:19.008Z,56
2017-07-20T06:27:19.587Z,56
2017-07-20T06:28:20.163Z,64
2017-07-20T06:29:20.742Z,64
2017-07-20T06:30:21.320Z,72
2017-07-20T06:31:21.898Z,76
2017-07-20T06:32:22.489Z,76
2017-07-20T06:33:23.066Z,80
2017-07-20T06:34:23.646Z,84
2017-07-20T06:35:24.223Z,88
2017-07-20T06:36:24.802Z,92
2017-07-20T06:37:25.378Z,92
2017-07-20T06:38:25.968Z,96
2017-07-20T06:39:26.549Z,100
2017-07-20T06:40:27.126Z,104
2017-07-20T06:41:27.705Z,108
2017-07-20T06:42:28.283Z,116
2017-07-20T06:43:28.861Z,124
2017-07-20T06:44:29.440Z,132
2017-07-20T06:45:30.029Z,140
2017-07-20T06:46:30.609Z,152
2017-07-20T06:47:31.198Z,156
2017-07-20T06:48:31.776Z,168
2017-07-20T06:49:32.356Z,180
2017-07-20T06:50:32.935Z,192
2017-07-20T06:51:33.512Z,204
2017-07-20T06:52:34.091Z,216
2017-07-20T06:53:34.669Z,228
2017-07-20T06:54:35.248Z,240
2017-07-20T06:55:35.828Z,248
2017-07-20T06:56:36.409Z,252
2017-07-20T06:57:36.989Z,264
2017-07-20T06:58:37.569Z,264
2017-07-20T06:59:38.149Z,260
2017-07-20T07:00:38.732Z,248
2017-07-20T07:01:39.309Z,244
2017-07-20T07:02:39.902Z,236
2017-07-20T07:03:40.479Z,236
2017-07-20T07:04:41.061Z,240
2017-07-20T07:05:41.652Z,244
2017-07-20T07:06:42.235Z,248
2017-07-20T07:07:42.814Z,260
2017-07-20T07:08:43.394Z,276
2017-07-20T07:09:43.974Z,300
2017-07-20T07:10:44.553Z,324
2017-07-20T07:11:45.134Z,356
2017-07-20T07:12:45.715Z,384
2017-07-20T07:13:46.294Z,412
2017-07-20T07:14:46.879Z,440
2017-07-20T07:15:47.455Z,460
2017-07-20T07:16:48.033Z,472
2017-07-20T07:17:48.616Z,484
2017-07-20T07:18:49.196Z,492
2017-07-20T07:19:49.778Z,496
2017-07-20T07:20:50.358Z,496
2017-07-20T07:21:50.936Z,492
2017-07-20T07:22:51.521Z,484
2017-07-20T07:23:52.100Z,476
2017-07-20T07:24:52.689Z,464
2017-07-20T07:25:53.255Z,452
2017-07-20T07:26:53.837Z,444
2017-07-20T07:27:54.415Z,440
2017-07-20T07:28:55.008Z,440
2017-07-20T07:29:55.586Z,440
2017-07-20T07:30:56.166Z,456
2017-07-20T07:31:56.746Z,468
2017-07-20T07:32:57.332Z,492
2017-07-20T07:33:57.906Z,508
2017-07-20T07:34:58.488Z,532
2017-07-20T07:35:59.068Z,568
2017-07-20T07:36:59.648Z,608
2017-07-20T07:38:00.230Z,632
2017-07-20T07:39:00.810Z,628
2017-07-20T07:40:01.395Z,656
2017-07-20T07:41:01.972Z,660
2017-07-20T07:42:02.563Z,680
2017-07-20T07:43:03.143Z,676
2017-07-20T07:44:03.723Z,668
2017-07-20T07:45:04.302Z,632
2017-07-20T07:46:04.883Z,596
2017-07-20T07:47:05.464Z,560
2017-07-20T07:48:06.045Z,524
2017-07-20T07:49:06.634Z,508
2017-07-20T07:50:07.214Z,484
2017-07-20T07:51:07.796Z,452
2017-07-20T07:52:08.380Z,436
2017-07-20T07:53:08.953Z,388
2017-07-20T07:54:09.532Z,352
2017-07-20T07:55:10.125Z,324
2017-07-20T07:56:10.705Z,264
2017-07-20T07:57:11.284Z,212
2017-07-20T07:58:11.865Z,160
2017-07-20T07:59:12.442Z,136
2017-07-20T08:00:13.022Z,152
2017-07-20T08:01:13.611Z,188
2017-07-20T08:02:14.191Z,236
2017-07-20T08:03:14.785Z,256
2017-07-20T08:04:15.364Z,296
2017-07-20T08:05:15.954Z,352
2017-07-20T08:06:16.532Z,392
2017-07-20T08:07:17.112Z,408
2017-07-20T08:08:17.692Z,380
2017-07-20T08:09:18.282Z,368
2017-07-20T08:10:18.874Z,388
2017-07-20T08:11:19.456Z,392
2017-07-20T08:12:20.036Z,388
2017-07-20T08:13:20.617Z,380
2017-07-20T08:14:21.197Z,384
2017-07-20T08:15:21.778Z,392
2017-07-20T08:16:22.359Z,396
2017-07-20T08:17:22.938Z,380
2017-07-20T08:18:23.518Z,384
2017-07-20T08:19:24.099Z,356
2017-07-20T08:20:24.680Z,388
2017-07-20T08:21:25.262Z,416
2017-07-20T08:22:25.854Z,420
2017-07-20T08:23:26.433Z,364
2017-07-20T08:24:27.024Z,276
2017-07-20T08:25:27.615Z,260
2017-07-20T08:26:28.194Z,332
2017-07-20T08:27:28.773Z,368
2017-07-20T08:28:29.355Z,284
2017-07-20T08:29:29.935Z,248
2017-07-20T08:30:30.514Z,220
2017-07-20T08:31:31.094Z,216
2017-07-20T08:32:31.673Z,244
2017-07-20T08:33:32.265Z,284
2017-07-20T08:34:32.844Z,292
2017-07-20T08:35:33.423Z,336
2017-07-20T08:36:34.004Z,308
2017-07-20T08:37:34.582Z,284
2017-07-20T08:38:35.165Z,260
2017-07-20T08:39:35.743Z,228
2017-07-20T08:40:36.324Z,208
2017-07-20T08:41:36.903Z,212
2017-07-20T08:42:37.483Z,248
2017-07-20T08:43:38.063Z,280
2017-07-20T08:44:38.643Z,316
2017-07-20T08:45:39.224Z,388
2017-07-20T08:46:39.803Z,440
2017-07-20T08:47:40.385Z,536
2017-07-20T08:48:40.976Z,560
2017-07-20T08:49:41.556Z,548
2017-07-20T08:50:42.149Z,548
2017-07-20T08:51:42.730Z,508
2017-07-20T08:52:43.309Z,456
2017-07-20T08:53:43.889Z,452
2017-07-20T08:54:44.468Z,516
2017-07-20T08:55:45.048Z,616
2017-07-20T08:56:45.630Z,704
2017-07-20T08:57:46.210Z,768
2017-07-20T08:58:46.802Z,812
2017-07-20T08:59:47.384Z,824
2017-07-20T09:00:47.976Z,748
2017-07-20T09:01:48.560Z,700
2017-07-20T09:02:49.139Z,592
2017-07-20T09:03:49.719Z,548
2017-07-20T09:04:50.304Z,532
2017-07-20T09:05:50.881Z,448
2017-07-20T09:06:51.462Z,460
2017-07-20T09:07:52.046Z,624
2017-07-20T09:08:52.624Z,692
2017-07-20T09:09:53.205Z,664
2017-07-20T09:10:53.786Z,808
2017-07-20T09:11:54.366Z,864
2017-07-20T09:12:54.958Z,916
2017-07-20T09:13:55.538Z,860
2017-07-20T09:14:56.120Z,992
2017-07-20T09:15:56.702Z,924
2017-07-20T09:16:57.281Z,984
2017-07-20T09:17:57.860Z,872
2017-07-20T09:18:58.440Z,964
2017-07-20T09:19:59.021Z,968
2017-07-20T09:20:59.602Z,1100
2017-07-20T09:22:00.184Z,1064
2017-07-20T09:23:00.766Z,1156
2017-07-20T09:24:01.346Z,1104
2017-07-20T09:25:01.929Z,1092
2017-07-20T09:26:02.511Z,1040
2017-07-20T09:27:03.103Z,1008
2017-07-20T09:28:03.685Z,924
2017-07-20T09:29:04.267Z,704
2017-07-20T09:30:04.847Z,748
2017-07-20T09:31:05.427Z,704
2017-07-20T09:32:06.006Z,692
2017-07-20T09:33:06.591Z,868
2017-07-20T09:34:07.170Z,888
2017-07-20T09:35:07.750Z,724
2017-07-20T09:36:08.343Z,780
2017-07-20T09:37:08.924Z,916
2017-07-20T09:38:09.505Z,936
2017-07-20T09:39:10.085Z,868
2017-07-20T09:40:10.666Z,880
2017-07-20T09:41:11.246Z,704
2017-07-20T09:42:11.829Z,600
2017-07-20T09:43:12.409Z,676
2017-07-20T09:44:12.994Z,668
2017-07-20T09:45:13.570Z,688
2017-07-20T09:46:14.162Z,716
2017-07-20T09:47:14.745Z,848
2017-07-20T09:48:15.338Z,936
2017-07-20T09:49:15.919Z,880
2017-07-20T09:50:16.500Z,848
2017-07-20T09:51:17.081Z,824
2017-07-20T09:52:17.661Z,736
2017-07-20T09:53:18.255Z,712
2017-07-20T09:54:18.849Z,808
2017-07-20T09:55:19.429Z,868
2017-07-20T09:56:20.010Z,908
2017-07-20T09:57:20.603Z,1000
2017-07-20T09:58:21.196Z,1080
2017-07-20T09:59:21.781Z,1448
2017-07-20T10:00:22.361Z,1312
2017-07-20T10:01:22.942Z,1228
2017-07-20T10:02:23.525Z,1164
2017-07-20T10:03:24.107Z,1024
2017-07-20T10:04:24.687Z,940
2017-07-20T10:05:25.268Z,908
2017-07-20T10:06:25.849Z,984
2017-07-20T10:07:26.431Z,1248
2017-07-20T10:08:27.015Z,1440
2017-07-20T10:09:27.606Z,1124
2017-07-20T10:10:28.190Z,1036
2017-07-20T10:11:28.773Z,808
2017-07-20T10:12:29.353Z,820
2017-07-20T10:13:29.933Z,876
2017-07-20T10:14:30.514Z,872
2017-07-20T10:15:31.095Z,884
2017-07-20T10:16:31.678Z,824
2017-07-20T10:17:32.259Z,796
2017-07-20T10:18:32.842Z,976
2017-07-20T10:19:33.424Z,1072
2017-07-20T10:20:34.004Z,1104
2017-07-20T10:21:34.588Z,936
2017-07-20T10:22:35.170Z,916
2017-07-20T10:23:35.752Z,992
2017-07-20T10:24:36.334Z,1028
2017-07-20T10:25:36.916Z,1036
2017-07-20T10:26:37.499Z,1044
2017-07-20T10:27:38.080Z,1044
2017-07-20T10:28:38.664Z,1056
2017-07-20T10:29:39.257Z,1028
2017-07-20T10:30:39.839Z,1008
2017-07-20T10:31:40.425Z,1180
2017-07-20T10:32:41.034Z,1396
2017-07-20T10:33:41.596Z,1276
2017-07-20T10:34:42.179Z,1184
2017-07-20T10:35:42.762Z,1124
2017-07-20T10:36:43.345Z,1160
2017-07-20T10:37:43.937Z,1192
2017-07-20T10:38:44.522Z,1128
2017-07-20T10:39:45.105Z,1260
2017-07-20T10:40:45.687Z,1152
2017-07-20T10:41:46.269Z,1248
2017-07-20T10:42:46.852Z,1256
2017-07-20T10:43:47.437Z,1368
2017-07-20T10:44:48.017Z,1364
2017-07-20T10:45:48.601Z,1268
2017-07-20T10:46:49.195Z,1336
2017-07-20T10:47:49.789Z,1392
2017-07-20T10:48:50.371Z,1384
2017-07-20T10:49:50.958Z,1148
2017-07-20T10:50:51.535Z,1248
2017-07-20T10:51:52.129Z,1216
2017-07-20T10:52:52.712Z,1172
2017-07-20T10:53:53.295Z,1116
2017-07-20T10:54:53.887Z,1188
2017-07-20T10:55:54.469Z,1160
2017-07-20T10:56:55.053Z,1096
2017-07-20T10:57:55.636Z,1140
2017-07-20T10:58:56.218Z,1176
2017-07-20T10:59:56.799Z,1108
2017-07-20T11:00:57.383Z,1040
2017-07-20T11:01:57.966Z,1128
2017-07-20T11:02:58.548Z,1004
2017-07-20T11:03:59.135Z,968
2017-07-20T11:04:59.715Z,956
2017-07-20T11:06:00.298Z,928
2017-07-20T11:07:00.882Z,876
2017-07-20T11:08:01.464Z,812
2017-07-20T11:09:02.045Z,748
2017-07-20T11:10:02.626Z,724
2017-07-20T11:11:03.212Z,720
2017-07-20T11:12:03.811Z,700
2017-07-20T11:13:04.373Z,764
2017-07-20T11:14:04.956Z,768
2017-07-20T11:15:05.538Z,836
2017-07-20T11:16:06.119Z,928
2017-07-20T11:17:06.703Z,1036
2017-07-20T11:18:07.287Z,1068
2017-07-20T11:19:07.869Z,1104
2017-07-20T11:20:08.451Z,1136
2017-07-20T11:21:09.033Z,1180
2017-07-20T11:22:09.618Z,1220
2017-07-20T11:23:10.199Z,1252
2017-07-20T11:24:10.783Z,1272
2017-07-20T11:25:11.377Z,1292
2017-07-20T11:26:11.960Z,1300
2017-07-20T11:27:12.542Z,1296
2017-07-20T11:28:13.124Z,1308
2017-07-20T11:29:13.708Z,1320
2017-07-20T11:30:14.292Z,1320
2017-07-20T11:31:14.886Z,1316
2017-07-20T11:32:15.469Z,1260
2017-07-20T11:33:16.053Z,1196
2017-07-20T11:34:16.634Z,1176
2017-07-20T11:35:17.219Z,1172
2017-07-20T11:36:17.800Z,1180
2017-07-20T11:37:18.383Z,1188
2017-07-20T11:38:18.965Z,1168
2017-07-20T11:39:19.548Z,1204
2017-07-20T11:40:20.134Z,1256
2017-07-20T11:41:20.714Z,1304
2017-07-20T11:42:21.296Z,1328
2017-07-20T11:43:21.879Z,1360
2017-07-20T11:44:22.473Z,1416
2017-07-20T11:45:23.055Z,1404
2017-07-20T11:46:23.638Z,1508
2017-07-20T11:47:24.231Z,1596
2017-07-20T11:48:24.813Z,1364
2017-07-20T11:49:25.396Z,1412
2017-07-20T11:50:25.979Z,1280
2017-07-20T11:51:26.564Z,1460
2017-07-20T11:52:27.146Z,1508
2017-07-20T11:53:27.742Z,1284
2017-07-20T11:54:28.324Z,1420
2017-07-20T11:55:28.908Z,1036
2017-07-20T11:56:29.492Z,1332
2017-07-20T11:57:30.075Z,1084
2017-07-20T11:58:30.660Z,1076
2017-07-20T11:59:31.240Z,952
2017-07-20T12:00:31.825Z,1284
2017-07-20T12:01:32.406Z,1252
2017-07-20T12:02:32.990Z,1116
2017-07-20T12:03:33.575Z,1064
2017-07-20T12:04:34.158Z,1024
2017-07-20T12:05:34.742Z,1156
2017-07-20T12:06:35.327Z,1216
2017-07-20T12:07:35.910Z,1512
2017-07-20T12:08:36.503Z,1224
2017-07-20T12:09:37.077Z,1340
2017-07-20T12:10:37.661Z,1568
2017-07-20T12:11:38.246Z,1508
2017-07-20T12:12:38.829Z,1524
2017-07-20T12:13:39.412Z,1448
2017-07-20T12:14:39.994Z,1464
2017-07-20T12:15:40.578Z,1436
2017-07-20T12:16:41.164Z,1012
2017-07-20T12:17:41.747Z,1044
2017-07-20T12:18:42.329Z,1016
2017-07-20T12:19:42.912Z,1064
2017-07-20T12:20:43.497Z,1596
2017-07-20T12:21:44.082Z,1516
2017-07-20T12:22:44.667Z,1316
2017-07-20T12:23:45.248Z,1696
2017-07-20T12:24:45.833Z,1592
2017-07-20T12:25:46.414Z,1572
2017-07-20T12:26:46.999Z,1500
2017-07-20T12:27:47.581Z,1300
2017-07-20T12:28:48.167Z,1296
2017-07-20T12:29:48.761Z,1396
2017-07-20T12:30:49.342Z,1252
2017-07-20T12:31:49.926Z,1532
2017-07-20T12:32:50.513Z,1416
2017-07-20T12:33:51.112Z,1064
2017-07-20T12:34:51.691Z,1508
2017-07-20T12:35:52.278Z,1664
2017-07-20T12:36:52.860Z,1060
2017-07-20T12:37:53.454Z,1028
2017-07-20T12:38:54.039Z,1028
2017-07-20T12:39:54.622Z,1248
2017-07-20T12:40:55.204Z,972
2017-07-20T12:41:55.788Z,764
2017-07-20T12:42:56.371Z,628
2017-07-20T12:43:56.954Z,536
2017-07-20T12:44:57.535Z,436
2017-07-20T12:45:58.116Z,344
2017-07-20T12:46:58.699Z,284
2017-07-20T12:47:59.282Z,256
2017-07-20T12:48:59.867Z,248
2017-07-20T12:50:00.448Z,272
2017-07-20T12:51:01.033Z,360
2017-07-20T12:52:01.626Z,480
2017-07-20T12:53:02.215Z,1028
2017-07-20T12:54:02.792Z,844
2017-07-20T12:55:03.373Z,1024
2017-07-20T12:56:03.958Z,1588
2017-07-20T12:57:04.551Z,1660
2017-07-20T12:58:05.137Z,1464
2017-07-20T12:59:05.719Z,1708
2017-07-20T13:00:06.303Z,1844
2017-07-20T13:01:06.887Z,1336
2017-07-20T13:02:07.469Z,1316
2017-07-20T13:03:08.053Z,1260
2017-07-20T13:04:08.635Z,1820
2017-07-20T13:05:09.219Z,1804
2017-07-20T13:06:09.803Z,1792
2017-07-20T13:07:10.385Z,1756
2017-07-20T13:08:10.992Z,1604
2017-07-20T13:09:11.552Z,1584
2017-07-20T13:10:12.142Z,1600
2017-07-20T13:11:12.719Z,1568
2017-07-20T13:12:13.303Z,1536
2017-07-20T13:13:13.888Z,1524
2017-07-20T13:14:14.472Z,948
2017-07-20T13:15:15.051Z,880
2017-07-20T13:16:15.633Z,1012
2017-07-20T13:17:16.227Z,1208
2017-07-20T13:18:16.810Z,1168
2017-07-20T13:19:17.394Z,1216
2017-07-20T13:20:17.978Z,1536
2017-07-20T13:21:18.562Z,1292
2017-07-20T13:22:19.146Z,1756
2017-07-20T13:23:19.727Z,1576
2017-07-20T13:24:20.310Z,1332
2017-07-20T13:25:20.893Z,1836
2017-07-20T13:26:21.479Z,1948
2017-07-20T13:27:22.060Z,1792
2017-07-20T13:28:22.643Z,1828
2017-07-20T13:29:23.225Z,1876
2017-07-20T13:30:23.809Z,1808
2017-07-20T13:31:24.396Z,1724
2017-07-20T13:32:24.989Z,1668
2017-07-20T13:33:25.572Z,1612
2017-07-20T13:34:26.166Z,1540
2017-07-20T13:35:26.751Z,1492
2017-07-20T13:36:27.334Z,1476
2017-07-20T13:37:27.917Z,1480
2017-07-20T13:38:28.502Z,1436
2017-07-20T13:39:29.089Z,1468
2017-07-20T13:40:29.670Z,1476
2017-07-20T13:41:30.254Z,1480
2017-07-20T13:42:30.837Z,1484
2017-07-20T13:43:31.421Z,1484
2017-07-20T13:44:32.006Z,1492
2017-07-20T13:45:32.591Z,1500
2017-07-20T13:46:33.184Z,1480
2017-07-20T13:47:33.767Z,1488
2017-07-20T13:48:34.362Z,1528
2017-07-20T13:49:34.948Z,1512
2017-07-20T13:50:35.540Z,1508
2017-07-20T13:51:36.123Z,1548
2017-07-20T13:52:36.705Z,1556
2017-07-20T13:53:37.288Z,1576
2017-07-20T13:54:37.871Z,1612
2017-07-20T13:55:38.456Z,1612
2017-07-20T13:56:39.038Z,1620
2017-07-20T13:57:39.621Z,1636
2017-07-20T13:58:40.204Z,1660
2017-07-20T13:59:40.788Z,1660
2017-07-20T14:00:41.372Z,1640
2017-07-20T14:01:41.956Z,1632
2017-07-20T14:02:42.538Z,1564
2017-07-20T14:03:43.120Z,1576
2017-07-20T14:04:43.704Z,1408
2017-07-20T14:05:44.289Z,1600
2017-07-20T14:06:44.871Z,1664
2017-07-20T14:07:45.455Z,1692
2017-07-20T14:08:46.037Z,1692
2017-07-20T14:09:46.622Z,1740
2017-07-20T14:10:47.207Z,1720